createdAt,value
2018-02-09T00:01:46.546Z,75.23
2018-02-09T00:04:13.309Z,85.27
2018-02-09T00:06:40.074Z,83.53
2018-02-09T00:09:06.885Z,83.53
2018-02-09T00:11:33.969Z,91.93
2018-02-09T00:14:00.730Z,89.90
2018-02-09T00:16:27.605Z,77.73
2018-02-09T00:18:54.459Z,76.97
2018-02-09T00:21:21.332Z,80.73
2018-02-09T00:23:48.314Z,79.90
2018-02-09T00:26:15.153Z,82.63
2018-02-09T00:28:41.910Z,83.90
2018-02-09T00:31:09.122Z,77.70
2018-02-09T00:33:36.445Z,82.00
2018-02-09T00:36:03.223Z,81.03
2018-02-09T00:38:30.312Z,82.77
2018-02-09T00:40:58.037Z,81.23
2018-02-09T00:43:24.829Z,80.07
2018-02-09T00:45:51.622Z,82.60
2018-02-09T00:48:19.587Z,81.70
2018-02-09T00:50:46.461Z,83.57
2018-02-09T00:53:13.242Z,79.63
2018-02-09T00:55:40.026Z,85.00
2018-02-09T00:58:06.775Z,84.23
2018-02-09T01:00:33.515Z,82.80
2018-02-09T01:03:00.290Z,92.27
2018-02-09T01:05:27.053Z,87.93
2018-02-09T01:07:53.790Z,90.13
2018-02-09T01:10:20.545Z,85.80
2018-02-09T01:12:48.282Z,83.20
2018-02-09T01:15:15.115Z,87.57
2018-02-09T01:17:43.375Z,88.97
2018-02-09T01:20:10.289Z,84.03
2018-02-09T01:22:37.044Z,94.57
2018-02-09T01:25:04.747Z,91.90
2018-02-09T01:43:46.742Z,72.68
2018-02-09T01:46:13.894Z,86.30
2018-02-09T01:48:40.689Z,83.57
2018-02-09T01:51:07.477Z,83.05
2018-02-09T01:53:34.318Z,83.37
2018-02-09T01:56:01.161Z,75.03
2018-02-09T01:58:27.997Z,81.60
2018-02-09T02:00:54.789Z,81.27
2018-02-09T02:03:21.637Z,77.68
2018-02-09T02:05:48.544Z,77.87
2018-02-09T02:08:16.169Z,77.20
2018-02-09T02:10:43.008Z,78.13
2018-02-09T02:13:09.857Z,77.18
2018-02-09T02:15:36.657Z,73.07
2018-02-09T02:18:03.560Z,80.93
2018-02-09T02:20:30.365Z,78.18
2018-02-09T02:22:57.240Z,74.53
2018-02-09T02:25:24.082Z,77.03
2018-02-09T02:27:51.012Z,83.25
2018-02-09T02:30:17.883Z,74.07
2018-02-09T02:32:45.339Z,77.50
2018-02-09T02:35:12.280Z,81.03
2018-02-09T02:37:39.164Z,79.47
2018-02-09T02:40:06.144Z,82.23
2018-02-09T02:42:33.079Z,83.73
2018-02-09T02:45:00.131Z,84.72
2018-02-09T02:47:27.002Z,104.55
2018-02-09T02:49:53.955Z,94.32
2018-02-09T02:52:20.779Z,98.90
2018-02-09T02:54:47.732Z,90.75
2018-02-09T02:57:14.579Z,89.30
2018-02-09T02:59:41.508Z,88.37
2018-02-09T03:02:08.955Z,87.32
2018-02-09T03:04:35.870Z,89.87
2018-02-09T03:07:02.881Z,90.90
2018-02-09T03:09:30.112Z,88.95
2018-02-09T03:11:56.970Z,90.53
2018-02-09T03:14:23.824Z,92.95
2018-02-09T03:16:50.712Z,90.70
2018-02-09T03:19:17.676Z,93.80
2018-02-09T03:21:45.400Z,102.70
2018-02-09T03:24:12.263Z,96.37
2018-02-09T03:26:39.134Z,92.30
2018-02-09T03:29:06.210Z,102.95
2018-02-09T03:31:33.190Z,93.55
2018-02-09T03:34:00.196Z,90.27
2018-02-09T03:36:27.866Z,88.93
2018-02-09T03:38:54.738Z,80.77
2018-02-09T03:41:21.648Z,92.75
2018-02-09T03:43:48.529Z,85.07
2018-02-09T03:46:15.434Z,87.72
2018-02-09T03:48:42.324Z,86.47
2018-02-09T03:51:09.168Z,78.07
2018-02-09T03:53:36.061Z,83.43
2018-02-09T03:56:02.989Z,84.13
2018-02-09T03:58:29.903Z,86.65
2018-02-09T04:00:56.871Z,83.62
2018-02-09T04:03:23.702Z,86.43
2018-02-09T04:05:50.647Z,85.82
2018-02-09T04:08:17.556Z,83.03
2018-02-09T04:10:44.362Z,84.07
2018-02-09T04:13:11.564Z,80.57
2018-02-09T04:15:38.442Z,76.10
2018-02-09T04:18:05.330Z,76.43
2018-02-09T04:20:32.403Z,73.03
2018-02-09T04:22:59.244Z,75.32
2018-02-09T04:25:26.083Z,70.03
2018-02-09T04:27:53.427Z,82.65
2018-02-09T04:30:20.287Z,75.57
2018-02-09T04:32:47.461Z,79.80
2018-02-09T04:35:14.491Z,75.97
2018-02-09T04:37:41.345Z,77.78
2018-02-09T04:40:08.307Z,71.95
2018-02-09T04:42:35.147Z,79.85
2018-02-09T04:45:02.787Z,78.57
2018-02-09T04:47:29.886Z,77.68
2018-02-09T04:49:56.780Z,90.45
2018-02-09T04:52:23.699Z,81.63
2018-02-09T04:54:50.573Z,80.95
2018-02-09T04:57:17.461Z,75.97
2018-02-09T04:59:44.398Z,75.93
2018-02-09T05:02:11.306Z,73.82
2018-02-09T05:04:38.115Z,75.12
2018-02-09T05:07:05.027Z,71.95
2018-02-09T05:09:31.935Z,82.62
2018-02-09T05:11:58.702Z,80.40
2018-02-09T05:14:25.572Z,82.95
2018-02-09T05:16:52.389Z,78.13
2018-02-09T05:19:19.519Z,90.43
2018-02-09T05:21:46.306Z,85.20
2018-02-09T05:24:13.105Z,93.20
2018-02-09T05:26:39.869Z,90.07
2018-02-09T05:29:06.616Z,90.57
2018-02-09T05:31:33.733Z,88.67
2018-02-09T05:34:01.458Z,89.83
2018-02-09T05:36:28.223Z,94.13
2018-02-09T05:38:55.034Z,89.40
2018-02-09T05:41:21.885Z,94.20
2018-02-09T05:43:48.689Z,94.37
2018-02-09T05:46:15.479Z,98.90
2018-02-09T05:48:42.633Z,94.87
2018-02-09T05:51:09.396Z,98.13
2018-02-09T05:53:36.172Z,95.70
2018-02-09T05:56:02.933Z,98.23
2018-02-09T05:58:29.935Z,100.90
2018-02-09T06:00:56.714Z,99.47
2018-02-09T06:03:23.479Z,101.10
2018-02-09T06:05:50.422Z,112.60
2018-02-09T06:08:17.352Z,107.80
2018-02-09T06:10:44.214Z,102.67
2018-02-09T06:13:11.007Z,111.83
2018-02-09T06:15:37.775Z,105.70
2018-02-09T06:18:04.598Z,107.10
2018-02-09T06:20:31.359Z,108.93
2018-02-09T06:22:59.233Z,96.83
2018-02-09T06:25:25.990Z,96.37
2018-02-09T06:27:52.781Z,92.20
2018-02-09T06:30:19.558Z,89.77
2018-02-09T06:32:46.360Z,86.00
2018-02-09T06:35:13.153Z,92.60
2018-02-09T06:37:39.957Z,95.93
2018-02-09T06:40:06.741Z,98.50
2018-02-09T06:42:33.523Z,89.27
2018-02-09T06:45:01.174Z,94.57
2018-02-09T06:47:27.975Z,91.97
2018-02-09T06:49:54.749Z,94.60
2018-02-09T06:52:21.657Z,101.80
2018-02-09T06:54:48.426Z,100.90
2018-02-09T06:57:15.233Z,105.33
2018-02-09T06:59:42.015Z,104.30
2018-02-09T07:02:08.777Z,107.83
2018-02-09T07:04:35.695Z,111.20
2018-02-09T07:07:02.535Z,106.50
2018-02-09T07:09:29.300Z,110.13
2018-02-09T07:11:56.104Z,110.10
2018-02-09T07:14:22.853Z,112.63
2018-02-09T07:16:49.644Z,131.93
2018-02-09T07:19:16.660Z,112.13
2018-02-09T07:21:43.434Z,110.27
2018-02-09T07:24:10.249Z,104.70
2018-02-09T07:26:37.758Z,103.93
2018-02-09T07:29:04.733Z,101.83
2018-02-09T07:31:32.070Z,101.10
2018-02-09T07:33:58.832Z,104.17
2018-02-09T07:36:25.574Z,104.53
2018-02-09T07:38:52.541Z,102.53
2018-02-09T07:41:19.358Z,104.53
2018-02-09T07:43:46.141Z,104.50
2018-02-09T07:46:12.934Z,107.23
2018-02-09T07:48:39.693Z,112.30
2018-02-09T07:51:06.462Z,109.27
2018-02-09T07:53:33.271Z,110.60
2018-02-09T07:56:00.047Z,109.50
2018-02-09T07:58:26.842Z,114.80
2018-02-09T08:00:53.621Z,115.70
2018-02-09T08:03:20.412Z,113.47
2018-02-09T08:05:47.234Z,112.93
2018-02-09T08:08:14.035Z,109.37
2018-02-09T08:10:40.843Z,111.80
2018-02-09T08:13:07.687Z,104.83
2018-02-09T08:15:34.455Z,108.60
2018-02-09T08:18:01.255Z,105.10
2018-02-09T08:20:28.061Z,101.93
2018-02-09T08:22:54.850Z,107.97
2018-02-09T08:25:21.615Z,106.47
2018-02-09T08:27:48.542Z,104.97
2018-02-09T08:30:15.358Z,114.47
2018-02-09T08:32:42.384Z,123.17
2018-02-09T08:35:09.177Z,110.33
2018-02-09T08:37:36.186Z,103.37
2018-02-09T08:40:02.979Z,106.27
2018-02-09T08:42:29.885Z,109.07
2018-02-09T08:44:56.676Z,108.07
2018-02-09T08:47:23.430Z,103.70
2018-02-09T08:49:50.253Z,100.53
2018-02-09T08:52:17.135Z,112.07
2018-02-09T08:54:43.894Z,99.37
2018-02-09T08:57:10.702Z,100.90
2018-02-09T08:59:37.497Z,102.60
2018-02-09T09:02:06.747Z,96.63
2018-02-09T09:04:33.519Z,98.07
2018-02-09T09:07:00.317Z,101.27
2018-02-09T09:09:27.110Z,104.10
2018-02-09T09:11:53.873Z,98.57
2018-02-09T09:14:20.638Z,101.33
2018-02-09T09:16:47.429Z,99.23
2018-02-09T09:19:14.222Z,103.53
2018-02-09T09:21:40.977Z,101.60
2018-02-09T09:24:07.770Z,106.17
2018-02-09T09:26:34.525Z,101.47
2018-02-09T09:29:01.409Z,101.67
2018-02-09T09:31:28.222Z,93.77
2018-02-09T09:33:55.101Z,96.90
2018-02-09T09:36:21.962Z,100.63
2018-02-09T09:38:49.185Z,104.40
2018-02-09T09:41:16.791Z,101.20
2018-02-09T09:43:44.441Z,99.37
2018-02-09T09:46:11.222Z,98.27
2018-02-09T09:48:39.065Z,108.07
2018-02-09T09:51:06.619Z,98.27
2018-02-09T09:53:33.401Z,105.50
2018-02-09T09:56:00.301Z,108.53
2018-02-09T09:58:38.991Z,105.60
2018-02-09T10:01:11.706Z,104.30
2018-02-09T10:03:38.492Z,102.23
2018-02-09T10:06:05.312Z,99.77
2018-02-09T10:08:32.534Z,96.23
2018-02-09T10:10:59.544Z,99.37
2018-02-09T10:13:26.453Z,95.63
2018-02-09T10:15:53.189Z,91.73
2018-02-09T10:18:31.610Z,96.20
2018-02-09T10:20:58.426Z,94.93
2018-02-09T10:23:25.451Z,92.27
2018-02-09T10:25:53.341Z,91.27
2018-02-09T10:28:20.226Z,97.10
2018-02-09T10:30:47.015Z,93.70
2018-02-09T10:33:14.226Z,89.03
2018-02-09T10:35:40.976Z,86.37
2018-02-09T10:38:07.839Z,84.23
2018-02-09T10:40:34.636Z,98.47
2018-02-09T10:43:01.469Z,89.70
2018-02-09T10:45:28.385Z,87.60
2018-02-09T10:47:55.169Z,84.80
2018-02-09T10:50:21.981Z,90.60
2018-02-09T10:52:48.869Z,91.23
2018-02-09T10:55:15.619Z,71.03
2018-02-09T10:57:42.371Z,74.07
2018-02-09T11:00:09.157Z,72.17
2018-02-09T11:02:35.913Z,80.27
2018-02-09T11:05:02.935Z,57.20
2018-02-09T11:07:29.697Z,37.53
2018-02-09T11:09:57.449Z,29.93
2018-02-09T11:31:54.362Z,25.17
2018-02-09T11:34:22.380Z,25.20
2018-02-09T11:36:49.318Z,31.53
2018-02-09T11:39:16.144Z,34.33
2018-02-09T11:41:43.028Z,46.87
2018-02-09T11:44:09.791Z,50.33
2018-02-09T11:46:36.561Z,62.63
2018-02-09T11:49:03.290Z,45.70
2018-02-09T11:51:30.096Z,44.13
2018-02-09T11:53:59.211Z,47.47
2018-02-09T11:56:26.045Z,58.90
2018-02-09T11:58:52.837Z,52.37
2018-02-09T12:01:19.597Z,58.27
2018-02-09T12:03:46.462Z,54.03
2018-02-09T12:06:13.218Z,53.83
2018-02-09T12:08:40.010Z,53.33
2018-02-09T12:11:06.794Z,47.57
2018-02-09T12:13:33.677Z,55.17
2018-02-09T12:16:00.459Z,36.43
2018-02-09T12:18:27.235Z,35.10
2018-02-09T12:20:54.213Z,40.90
2018-02-09T12:23:21.031Z,54.37
2018-02-09T12:25:47.796Z,46.07
2018-02-09T12:28:14.587Z,54.97
2018-02-09T12:30:41.341Z,59.23
2018-02-09T12:33:08.096Z,42.23
2018-02-09T12:35:35.783Z,76.27
2018-02-09T12:38:02.825Z,59.53
2018-02-09T12:40:30.590Z,54.10
2018-02-09T12:42:57.351Z,54.27
2018-02-09T12:45:24.118Z,55.83
2018-02-09T12:47:51.027Z,55.77
2018-02-09T12:50:17.781Z,59.17
2018-02-09T12:52:44.550Z,59.20
2018-02-09T12:55:11.384Z,54.27
2018-02-09T12:57:38.142Z,48.10
2018-02-09T13:00:04.919Z,48.73
2018-02-09T13:02:32.296Z,52.97
2018-02-09T13:04:59.063Z,50.43
2018-02-09T13:07:25.854Z,49.30
2018-02-09T13:09:52.625Z,53.40
2018-02-09T13:12:25.270Z,52.30
2018-02-09T13:14:52.246Z,52.07
2018-02-09T13:17:19.018Z,52.77
2018-02-09T13:19:45.789Z,52.07
2018-02-09T13:22:18.538Z,51.37
2018-02-09T13:24:45.377Z,49.30
2018-02-09T13:27:12.140Z,48.20
2018-02-09T13:29:39.714Z,43.60
2018-02-09T13:32:06.462Z,43.07
2018-02-09T13:34:33.222Z,44.70
2018-02-09T13:37:15.154Z,41.37
2018-02-09T13:39:42.633Z,35.77
2018-02-09T13:42:10.155Z,35.33
2018-02-09T13:44:36.950Z,40.83
2018-02-09T13:47:03.737Z,37.33
2018-02-09T13:49:30.514Z,38.27
2018-02-09T13:51:57.562Z,36.67
2018-02-09T13:54:24.936Z,37.07
2018-02-09T13:56:51.725Z,36.90
2018-02-09T13:59:18.755Z,35.73
2018-02-09T14:01:47.809Z,36.27
2018-02-09T14:04:14.782Z,36.43
2018-02-09T14:06:41.519Z,36.93
2018-02-09T14:09:09.123Z,36.67
2018-02-09T14:11:35.994Z,40.67
2018-02-09T14:14:02.749Z,41.77
2018-02-09T14:16:29.538Z,36.90
2018-02-09T14:18:56.322Z,41.17
2018-02-09T14:21:23.089Z,37.07
2018-02-09T14:23:49.901Z,38.30
2018-02-09T14:26:16.618Z,37.60
2018-02-09T14:28:43.448Z,40.40
2018-02-09T14:31:10.242Z,39.93
2018-02-09T14:33:37.054Z,40.17
2018-02-09T14:36:03.825Z,43.97
2018-02-09T14:38:30.627Z,41.50
2018-02-09T14:40:58.282Z,38.53
2018-02-09T14:43:25.250Z,33.20
2018-02-09T14:45:52.014Z,36.17
2018-02-09T14:48:18.784Z,38.37
2018-02-09T14:50:45.729Z,39.23
2018-02-09T14:53:15.685Z,37.17
2018-02-09T14:55:43.339Z,37.17
2018-02-09T14:58:10.110Z,40.27
2018-02-09T15:00:37.052Z,40.97
2018-02-09T15:03:03.928Z,40.23
2018-02-09T15:05:38.475Z,47.83
2018-02-09T15:08:07.831Z,43.53
2018-02-09T15:10:41.950Z,41.17
2018-02-09T15:13:08.737Z,44.90
2018-02-09T15:15:35.979Z,45.33
2018-02-09T15:18:02.790Z,54.17
2018-02-09T15:20:29.702Z,51.17
2018-02-09T15:22:56.477Z,59.13
2018-02-09T15:25:23.374Z,51.10
2018-02-09T15:30:24.442Z,44.93
2018-02-09T15:32:55.933Z,56.50
2018-02-09T15:35:22.737Z,72.97
2018-02-09T15:37:52.032Z,93.13
2018-02-09T15:40:22.189Z,66.20
2018-02-09T15:42:48.981Z,74.10
2018-02-09T15:45:15.739Z,63.57
2018-02-09T15:47:42.765Z,57.50
2018-02-09T15:50:09.550Z,48.50
2018-02-09T15:52:36.309Z,53.53
2018-02-09T15:55:03.308Z,51.77
2018-02-09T15:57:30.153Z,55.13
2018-02-09T15:59:56.950Z,54.10
2018-02-09T16:02:23.857Z,50.83
2018-02-09T16:04:50.697Z,50.50
2018-02-09T16:07:17.483Z,52.83
2018-02-09T16:09:44.258Z,61.57
2018-02-09T16:12:11.210Z,56.80
2018-02-09T16:14:38.004Z,54.90
2018-02-09T16:17:04.769Z,51.83
2018-02-09T16:19:31.553Z,52.70
2018-02-09T16:21:58.318Z,52.40
2018-02-09T16:24:25.095Z,53.40
2018-02-09T16:26:52.513Z,52.03
2018-02-09T16:29:20.667Z,57.50
2018-02-09T16:31:47.506Z,63.77
2018-02-09T16:34:14.269Z,59.43
2018-02-09T16:36:41.061Z,57.83
2018-02-09T16:39:07.842Z,55.90
2018-02-09T16:41:34.755Z,64.43
2018-02-09T16:44:01.511Z,61.23
2018-02-09T16:46:28.272Z,73.43
2018-02-09T16:48:55.026Z,74.67
2018-02-09T16:51:22.255Z,71.97
2018-02-09T16:53:49.022Z,63.50
2018-02-09T16:56:15.809Z,57.63
2018-02-09T16:58:42.777Z,59.47
2018-02-09T17:01:09.526Z,51.83
2018-02-09T17:03:39.620Z,58.73
2018-02-09T17:06:06.538Z,50.53
2018-02-09T17:08:33.869Z,55.23
2018-02-09T17:11:00.770Z,54.60
2018-02-09T17:13:27.553Z,55.33
2018-02-09T17:15:54.316Z,54.03
2018-02-09T17:18:21.088Z,55.20
2018-02-09T17:23:19.569Z,61.47
2018-02-09T17:25:46.372Z,71.45
2018-02-09T17:28:13.198Z,55.13
2018-02-09T17:30:40.010Z,50.10
2018-02-09T17:33:06.803Z,45.77
2018-02-09T17:35:33.584Z,44.87
2018-02-09T17:38:00.417Z,59.45
2018-02-09T17:40:27.218Z,73.25
2018-02-09T17:42:54.001Z,80.72
2018-02-09T17:45:20.758Z,86.07
2018-02-09T17:47:47.546Z,73.00
2018-02-09T17:50:14.298Z,67.62
2018-02-09T17:52:41.065Z,70.35
2018-02-09T17:55:07.964Z,70.22
2018-02-09T17:57:34.741Z,72.93
2018-02-09T18:00:01.599Z,75.15
2018-02-09T18:02:28.555Z,83.97
2018-02-09T18:04:55.313Z,84.87
2018-02-09T18:07:22.077Z,84.78
2018-02-09T18:09:48.873Z,194.27
2018-02-09T18:12:15.638Z,88.00
2018-02-09T18:14:42.412Z,63.10
2018-02-09T18:17:09.184Z,56.80
2018-02-09T18:19:35.973Z,55.07
2018-02-09T18:22:02.750Z,54.30
2018-02-09T18:24:29.510Z,57.60
2018-02-09T18:26:56.284Z,55.70
2018-02-09T18:29:23.255Z,57.90
2018-02-09T18:31:50.057Z,57.77
2018-02-09T18:34:16.999Z,57.77
2018-02-09T18:36:43.971Z,54.70
2018-02-09T18:39:10.797Z,52.70
2018-02-09T18:41:37.648Z,50.93
2018-02-09T18:44:04.479Z,55.73
2018-02-09T18:46:31.310Z,65.53
2018-02-09T18:48:58.312Z,115.78
2018-02-09T18:51:25.262Z,119.37
2018-02-09T18:53:52.865Z,113.00
2018-02-09T18:56:25.602Z,101.10
2018-02-09T18:58:52.435Z,94.60
2018-02-09T19:01:19.198Z,85.95
2018-02-09T19:03:46.087Z,94.32
2018-02-09T19:06:12.871Z,92.85
2018-02-09T19:08:39.667Z,90.07
2018-02-09T19:11:06.415Z,94.25
2018-02-09T19:13:33.821Z,94.78
2018-02-09T19:16:00.634Z,90.33
2018-02-09T19:18:27.388Z,78.10
2018-02-09T19:20:54.138Z,86.22
2018-02-09T19:23:21.011Z,89.20
2018-02-09T19:25:47.841Z,88.12
2018-02-09T19:28:14.591Z,90.28
2018-02-09T19:30:41.335Z,89.97
2018-02-09T19:33:08.118Z,89.50
2018-02-09T19:35:34.962Z,87.10
2018-02-09T19:38:01.717Z,63.40
2018-02-09T19:40:28.826Z,57.30
2018-02-09T19:42:55.589Z,75.07
2018-02-09T19:45:22.391Z,94.47
2018-02-09T19:47:49.260Z,65.17
2018-02-09T19:50:16.059Z,57.93
2018-02-09T19:52:42.990Z,60.37
2018-02-09T19:55:09.757Z,64.67
2018-02-09T19:57:36.673Z,66.20
2018-02-09T20:00:03.494Z,76.73
2018-02-09T20:02:30.950Z,73.70
2018-02-09T20:04:57.785Z,67.53
2018-02-09T20:07:24.563Z,126.97
2018-02-09T20:09:51.384Z,87.50
2018-02-09T20:12:18.146Z,127.47
2018-02-09T20:14:44.915Z,111.40
2018-02-09T20:17:11.721Z,110.67
2018-02-09T20:19:38.510Z,180.23
2018-02-09T20:22:05.281Z,331.10
2018-02-09T20:24:32.077Z,444.97
2018-02-09T20:26:59.093Z,481.47
2018-02-09T20:29:25.865Z,117.53
2018-02-09T20:31:52.753Z,113.95
2018-02-09T20:34:20.479Z,84.70
2018-02-09T20:36:48.121Z,76.97
2018-02-09T20:39:14.891Z,110.12
2018-02-09T20:41:41.654Z,178.70
2018-02-09T20:44:08.426Z,93.90
2018-02-09T20:46:35.230Z,83.47
2018-02-09T20:49:02.008Z,80.37
2018-02-09T20:51:28.802Z,82.80
2018-02-09T20:53:55.849Z,101.23
2018-02-09T20:56:22.719Z,136.40
2018-02-09T20:58:49.978Z,128.37
2018-02-09T21:01:16.758Z,104.33
2018-02-09T21:03:43.494Z,93.77
2018-02-09T21:06:10.382Z,90.77
2018-02-09T21:08:37.317Z,91.67
2018-02-09T21:11:04.266Z,94.93
2018-02-09T21:13:34.483Z,91.20
2018-02-09T21:16:01.610Z,87.03
2018-02-09T21:18:28.374Z,88.50
2018-02-09T21:20:55.138Z,88.60
2018-02-09T21:23:22.892Z,89.20
2018-02-09T21:25:49.742Z,91.90
2018-02-09T21:28:17.219Z,101.17
2018-02-09T21:30:43.974Z,93.57
2018-02-09T21:33:10.741Z,96.23
2018-02-09T21:35:37.528Z,99.27
2018-02-09T21:38:04.317Z,95.73
2018-02-09T21:40:31.445Z,91.17
2018-02-09T21:59:13.257Z,84.32
2018-02-09T22:01:40.025Z,95.60
2018-02-09T22:04:06.932Z,90.83
2018-02-09T22:06:33.941Z,98.83
2018-02-09T22:09:00.900Z,94.33
2018-02-09T22:11:28.373Z,96.30
2018-02-09T22:13:55.421Z,101.07
2018-02-09T22:16:22.229Z,101.30
2018-02-09T22:18:49.019Z,104.73
2018-02-09T22:21:16.332Z,105.33
2018-02-09T22:23:43.280Z,106.60
2018-02-09T22:26:10.078Z,121.70
2018-02-09T22:28:36.878Z,109.27
2018-02-09T22:31:04.619Z,105.97
2018-02-09T22:33:31.406Z,113.27
2018-02-09T22:35:58.178Z,112.43
2018-02-09T22:38:24.973Z,109.67
2018-02-09T22:40:51.782Z,106.87
2018-02-09T22:43:18.687Z,106.27
2018-02-09T22:45:46.053Z,105.33
2018-02-09T22:48:12.841Z,99.53
2018-02-09T22:50:39.607Z,92.57
2018-02-09T22:53:06.374Z,95.30
2018-02-09T22:55:34.098Z,90.60
2018-02-09T22:58:00.865Z,87.57
2018-02-09T23:00:27.599Z,89.63
2018-02-09T23:02:57.205Z,91.23
2018-02-09T23:05:24.898Z,81.93
2018-02-09T23:07:51.662Z,85.40
2018-02-09T23:10:18.436Z,86.73
2018-02-09T23:12:45.201Z,86.90
2018-02-09T23:15:11.978Z,84.13
2018-02-09T23:17:38.718Z,85.80
2018-02-09T23:20:06.006Z,77.93
2018-02-09T23:22:32.767Z,77.73
2018-02-09T23:24:59.531Z,79.30
2018-02-09T23:27:26.442Z,77.50
2018-02-09T23:29:53.201Z,75.93
2018-02-09T23:32:20.156Z,76.20
2018-02-09T23:34:48.526Z,79.97
2018-02-09T23:37:15.927Z,81.03
2018-02-09T23:39:42.957Z,84.10
2018-02-09T23:42:09.739Z,76.73
2018-02-09T23:44:37.922Z,81.37
2018-02-09T23:47:20.663Z,83.27
2018-02-09T23:52:44.099Z,80.57
2018-02-09T23:55:47.095Z,76.20
2018-02-09T23:58:14.485Z,80.07
